sensor_id;sensor_type;location;lat;lon;timestamp;temperature;humidity
27559;DHT22;15002;52.028;5.670;2023-02-26T00:01:27;4.90;99.90
27559;DHT22;15002;52.028;5.670;2023-02-26T00:03:55;4.90;99.90
27559;DHT22;15002;52.028;5.670;2023-02-26T00:06:23;5.10;99.90
27559;DHT22;15002;52.028;5.670;2023-02-26T00:08:49;4.70;99.90
27559;DHT22;15002;52.028;5.670;2023-02-26T00:11:14;4.60;99.90
27559;DHT22;15002;52.028;5.670;2023-02-26T00:13:42;4.80;99.90
27559;DHT22;15002;52.028;5.670;2023-02-26T00:16:34;4.70;99.90
27559;DHT22;15002;52.028;5.670;2023-02-26T00:19:03;4.50;99.90
27559;DHT22;15002;52.028;5.670;2023-02-26T00:21:30;4.50;99.90
27559;DHT22;15002;52.028;5.670;2023-02-26T00:23:56;4.30;99.90
27559;DHT22;15002;52.028;5.670;2023-02-26T00:26:24;4.20;99.90
27559;DHT22;15002;52.028;5.670;2023-02-26T00:28:50;4.20;99.90
27559;DHT22;15002;52.028;5.670;2023-02-26T00:31:16;4.10;99.90
27559;DHT22;15002;52.028;5.670;2023-02-26T00:33:43;3.90;99.90
27559;DHT22;15002;52.028;5.670;2023-02-26T00:38:55;4.20;99.90
27559;DHT22;15002;52.028;5.670;2023-02-26T00:41:22;4.30;99.90
27559;DHT22;15002;52.028;5.670;2023-02-26T00:43:48;4.20;99.90
27559;DHT22;15002;52.028;5.670;2023-02-26T00:46:34;4.40;99.90
27559;DHT22;15002;52.028;5.670;2023-02-26T00:52:04;4.50;99.90
27559;DHT22;15002;52.028;5.670;2023-02-26T00:54:30;4.40;99.90
27559;DHT22;15002;52.028;5.670;2023-02-26T00:56:57;4.40;99.90
27559;DHT22;15002;52.028;5.670;2023-02-26T00:59:23;4.40;99.90
27559;DHT22;15002;52.028;5.670;2023-02-26T01:01:50;4.40;99.90
27559;DHT22;15002;52.028;5.670;2023-02-26T01:04:18;4.40;99.90
27559;DHT22;15002;52.028;5.670;2023-02-26T01:06:49;4.40;99.90
27559;DHT22;15002;52.028;5.670;2023-02-26T01:09:31;4.50;99.90
27559;DHT22;15002;52.028;5.670;2023-02-26T01:12:00;4.50;99.90
27559;DHT22;15002;52.028;5.670;2023-02-26T01:14:29;4.40;99.90
27559;DHT22;15002;52.028;5.670;2023-02-26T01:17:24;4.40;99.90
27559;DHT22;15002;52.028;5.670;2023-02-26T01:19:57;4.30;99.90
27559;DHT22;15002;52.028;5.670;2023-02-26T01:22:46;4.30;99.90
27559;DHT22;15002;52.028;5.670;2023-02-26T01:25:20;4.10;99.90
27559;DHT22;15002;52.028;5.670;2023-02-26T01:27:47;4.00;99.90
27559;DHT22;15002;52.028;5.670;2023-02-26T01:30:13;4.00;99.90
27559;DHT22;15002;52.028;5.670;2023-02-26T01:32:47;4.10;99.90
27559;DHT22;15002;52.028;5.670;2023-02-26T01:38:38;4.10;99.90
27559;DHT22;15002;52.028;5.670;2023-02-26T01:46:38;4.20;99.90
27559;DHT22;15002;52.028;5.670;2023-02-26T01:49:13;4.00;99.90
27559;DHT22;15002;52.028;5.670;2023-02-26T01:54:07;4.00;99.90
27559;DHT22;15002;52.028;5.670;2023-02-26T01:56:33;3.90;99.90
27559;DHT22;15002;52.028;5.670;2023-02-26T01:58:59;4.10;99.90
27559;DHT22;15002;52.028;5.670;2023-02-26T02:01:33;4.10;99.90
27559;DHT22;15002;52.028;5.670;2023-02-26T02:04:02;4.00;99.90
27559;DHT22;15002;52.028;5.670;2023-02-26T02:06:28;4.00;99.90
27559;DHT22;15002;52.028;5.670;2023-02-26T02:08:55;3.90;99.90
27559;DHT22;15002;52.028;5.670;2023-02-26T02:11:21;4.00;99.90
27559;DHT22;15002;52.028;5.670;2023-02-26T02:14:30;4.00;99.90
27559;DHT22;15002;52.028;5.670;2023-02-26T02:16:50;4.10;99.90
27559;DHT22;15002;52.028;5.670;2023-02-26T02:19:44;3.90;99.90
27559;DHT22;15002;52.028;5.670;2023-02-26T02:22:37;3.80;99.90
27559;DHT22;15002;52.028;5.670;2023-02-26T02:33:16;3.60;99.90
27559;DHT22;15002;52.028;5.670;2023-02-26T02:35:51;3.80;99.90
27559;DHT22;15002;52.028;5.670;2023-02-26T02:38:22;3.60;99.90
27559;DHT22;15002;52.028;5.670;2023-02-26T02:40:54;3.60;99.90
27559;DHT22;15002;52.028;5.670;2023-02-26T02:43:27;3.60;99.90
27559;DHT22;15002;52.028;5.670;2023-02-26T02:46:00;3.70;99.90
27559;DHT22;15002;52.028;5.670;2023-02-26T02:48:40;3.70;99.90
27559;DHT22;15002;52.028;5.670;2023-02-26T02:51:35;3.80;99.90
27559;DHT22;15002;52.028;5.670;2023-02-26T02:54:10;3.50;99.90
27559;DHT22;15002;52.028;5.670;2023-02-26T02:59:27;3.70;99.90
27559;DHT22;15002;52.028;5.670;2023-02-26T03:02:19;3.50;99.90
27559;DHT22;15002;52.028;5.670;2023-02-26T03:04:46;3.50;99.90
27559;DHT22;15002;52.028;5.670;2023-02-26T03:07:13;3.30;99.90
27559;DHT22;15002;52.028;5.670;2023-02-26T03:09:39;3.20;99.90
27559;DHT22;15002;52.028;5.670;2023-02-26T03:12:04;3.30;99.90
27559;DHT22;15002;52.028;5.670;2023-02-26T03:14:31;3.20;99.90
27559;DHT22;15002;52.028;5.670;2023-02-26T03:20:14;3.50;99.90
27559;DHT22;15002;52.028;5.670;2023-02-26T03:22:48;3.70;99.90
27559;DHT22;15002;52.028;5.670;2023-02-26T03:27:46;3.60;99.90
27559;DHT22;15002;52.028;5.670;2023-02-26T03:30:41;3.40;99.90
27559;DHT22;15002;52.028;5.670;2023-02-26T03:33:25;3.40;99.90
27559;DHT22;15002;52.028;5.670;2023-02-26T03:36:15;3.20;99.90
27559;DHT22;15002;52.028;5.670;2023-02-26T03:38:47;3.20;99.90
27559;DHT22;15002;52.028;5.670;2023-02-26T03:41:19;3.20;99.90
27559;DHT22;15002;52.028;5.670;2023-02-26T03:43:52;3.30;99.90
27559;DHT22;15002;52.028;5.670;2023-02-26T03:46:29;3.20;99.90
27559;DHT22;15002;52.028;5.670;2023-02-26T03:48:59;3.40;99.90
27559;DHT22;15002;52.028;5.670;2023-02-26T03:51:27;3.30;99.90
27559;DHT22;15002;52.028;5.670;2023-02-26T03:53:59;3.00;99.90
27559;DHT22;15002;52.028;5.670;2023-02-26T03:56:45;3.00;99.90
27559;DHT22;15002;52.028;5.670;2023-02-26T03:59:12;3.10;99.90
27559;DHT22;15002;52.028;5.670;2023-02-26T04:05:05;3.40;99.90
27559;DHT22;15002;52.028;5.670;2023-02-26T04:07:32;3.00;99.90
27559;DHT22;15002;52.028;5.670;2023-02-26T04:09:58;2.90;99.90
27559;DHT22;15002;52.028;5.670;2023-02-26T04:12:26;2.90;99.90
27559;DHT22;15002;52.028;5.670;2023-02-26T04:14:51;2.90;99.90
27559;DHT22;15002;52.028;5.670;2023-02-26T04:17:17;2.90;99.90
27559;DHT22;15002;52.028;5.670;2023-02-26T04:19:43;2.90;99.90
27559;DHT22;15002;52.028;5.670;2023-02-26T04:22:09;2.90;99.90
27559;DHT22;15002;52.028;5.670;2023-02-26T04:24:34;3.00;99.90
27559;DHT22;15002;52.028;5.670;2023-02-26T04:27:00;3.00;99.90
27559;DHT22;15002;52.028;5.670;2023-02-26T04:29:26;3.00;99.90
27559;DHT22;15002;52.028;5.670;2023-02-26T04:31:52;2.90;99.90
27559;DHT22;15002;52.028;5.670;2023-02-26T04:34:18;2.90;99.90
27559;DHT22;15002;52.028;5.670;2023-02-26T04:36:44;2.90;99.90
27559;DHT22;15002;52.028;5.670;2023-02-26T04:39:09;2.90;99.90
27559;DHT22;15002;52.028;5.670;2023-02-26T04:41:36;3.00;99.90
27559;DHT22;15002;52.028;5.670;2023-02-26T04:44:02;2.90;99.90
27559;DHT22;15002;52.028;5.670;2023-02-26T04:46:28;3.00;99.90
27559;DHT22;15002;52.028;5.670;2023-02-26T04:48:54;3.00;99.90
27559;DHT22;15002;52.028;5.670;2023-02-26T04:51:20;3.00;99.90
27559;DHT22;15002;52.028;5.670;2023-02-26T04:53:45;3.00;99.90
27559;DHT22;15002;52.028;5.670;2023-02-26T04:56:11;3.10;99.90
27559;DHT22;15002;52.028;5.670;2023-02-26T04:58:37;3.10;99.90
27559;DHT22;15002;52.028;5.670;2023-02-26T05:01:03;3.00;99.90
27559;DHT22;15002;52.028;5.670;2023-02-26T05:03:28;3.00;99.90
27559;DHT22;15002;52.028;5.670;2023-02-26T05:05:54;2.90;99.90
27559;DHT22;15002;52.028;5.670;2023-02-26T05:08:20;3.00;99.90
27559;DHT22;15002;52.028;5.670;2023-02-26T05:10:46;2.90;99.90
27559;DHT22;15002;52.028;5.670;2023-02-26T05:13:11;2.90;99.90
27559;DHT22;15002;52.028;5.670;2023-02-26T05:15:37;2.80;99.90
27559;DHT22;15002;52.028;5.670;2023-02-26T05:18:03;2.80;99.90
27559;DHT22;15002;52.028;5.670;2023-02-26T05:20:28;2.80;99.90
27559;DHT22;15002;52.028;5.670;2023-02-26T05:22:54;2.80;99.90
27559;DHT22;15002;52.028;5.670;2023-02-26T05:25:20;2.90;99.90
27559;DHT22;15002;52.028;5.670;2023-02-26T05:27:45;2.90;99.90
27559;DHT22;15002;52.028;5.670;2023-02-26T05:30:13;2.70;99.90
27559;DHT22;15002;52.028;5.670;2023-02-26T05:32:39;2.80;99.90
27559;DHT22;15002;52.028;5.670;2023-02-26T05:35:05;2.70;99.90
27559;DHT22;15002;52.028;5.670;2023-02-26T05:37:31;2.70;99.90
27559;DHT22;15002;52.028;5.670;2023-02-26T05:39:57;2.90;99.90
27559;DHT22;15002;52.028;5.670;2023-02-26T05:42:23;2.70;99.90
27559;DHT22;15002;52.028;5.670;2023-02-26T05:44:49;2.80;99.90
27559;DHT22;15002;52.028;5.670;2023-02-26T05:47:16;2.80;99.90
27559;DHT22;15002;52.028;5.670;2023-02-26T05:49:41;2.70;99.90
27559;DHT22;15002;52.028;5.670;2023-02-26T05:52:07;2.70;99.90
27559;DHT22;15002;52.028;5.670;2023-02-26T05:54:33;2.80;99.90
27559;DHT22;15002;52.028;5.670;2023-02-26T05:56:59;2.90;99.90
27559;DHT22;15002;52.028;5.670;2023-02-26T05:59:25;2.70;99.90
27559;DHT22;15002;52.028;5.670;2023-02-26T06:01:50;2.50;99.90
27559;DHT22;15002;52.028;5.670;2023-02-26T06:04:16;2.50;99.90
27559;DHT22;15002;52.028;5.670;2023-02-26T06:06:42;2.50;99.90
27559;DHT22;15002;52.028;5.670;2023-02-26T06:09:08;2.70;99.90
27559;DHT22;15002;52.028;5.670;2023-02-26T06:11:33;2.50;99.90
27559;DHT22;15002;52.028;5.670;2023-02-26T06:13:59;2.50;99.90
27559;DHT22;15002;52.028;5.670;2023-02-26T06:16:25;2.60;99.90
27559;DHT22;15002;52.028;5.670;2023-02-26T06:18:50;2.40;99.90
27559;DHT22;15002;52.028;5.670;2023-02-26T06:21:17;2.30;99.90
27559;DHT22;15002;52.028;5.670;2023-02-26T06:23:43;2.40;99.90
27559;DHT22;15002;52.028;5.670;2023-02-26T06:26:09;2.50;99.90
27559;DHT22;15002;52.028;5.670;2023-02-26T06:28:34;2.50;99.90
27559;DHT22;15002;52.028;5.670;2023-02-26T06:31:00;2.50;99.90
27559;DHT22;15002;52.028;5.670;2023-02-26T06:33:26;2.60;99.90
27559;DHT22;15002;52.028;5.670;2023-02-26T06:35:52;2.60;99.90
27559;DHT22;15002;52.028;5.670;2023-02-26T06:38:18;2.60;99.90
27559;DHT22;15002;52.028;5.670;2023-02-26T06:40:46;2.60;99.90
27559;DHT22;15002;52.028;5.670;2023-02-26T06:43:12;2.60;99.90
27559;DHT22;15002;52.028;5.670;2023-02-26T06:45:38;2.60;99.90
27559;DHT22;15002;52.028;5.670;2023-02-26T06:48:03;2.60;99.90
27559;DHT22;15002;52.028;5.670;2023-02-26T06:50:29;2.60;99.90
27559;DHT22;15002;52.028;5.670;2023-02-26T06:52:55;2.40;99.90
27559;DHT22;15002;52.028;5.670;2023-02-26T06:55:21;2.60;99.90
27559;DHT22;15002;52.028;5.670;2023-02-26T06:57:54;2.50;99.90
27559;DHT22;15002;52.028;5.670;2023-02-26T07:00:20;2.50;99.90
27559;DHT22;15002;52.028;5.670;2023-02-26T07:02:46;2.50;99.90
27559;DHT22;15002;52.028;5.670;2023-02-26T07:05:12;2.30;99.90
27559;DHT22;15002;52.028;5.670;2023-02-26T07:07:37;2.30;99.90
27559;DHT22;15002;52.028;5.670;2023-02-26T07:10:04;2.40;99.90
27559;DHT22;15002;52.028;5.670;2023-02-26T07:12:30;2.50;99.90
27559;DHT22;15002;52.028;5.670;2023-02-26T07:14:56;2.60;99.90
27559;DHT22;15002;52.028;5.670;2023-02-26T07:17:21;2.70;99.90
27559;DHT22;15002;52.028;5.670;2023-02-26T07:19:48;3.10;99.90
27559;DHT22;15002;52.028;5.670;2023-02-26T07:22:15;3.00;99.70
27559;DHT22;15002;52.028;5.670;2023-02-26T07:24:41;3.30;99.80
27559;DHT22;15002;52.028;5.670;2023-02-26T07:27:07;3.50;99.20
27559;DHT22;15002;52.028;5.670;2023-02-26T07:29:33;3.40;99.00
27559;DHT22;15002;52.028;5.670;2023-02-26T07:31:58;3.50;98.90
27559;DHT22;15002;52.028;5.670;2023-02-26T07:34:24;3.70;98.90
27559;DHT22;15002;52.028;5.670;2023-02-26T07:36:49;3.70;98.60
27559;DHT22;15002;52.028;5.670;2023-02-26T07:39:15;3.90;98.70
27559;DHT22;15002;52.028;5.670;2023-02-26T07:41:41;4.10;98.20
27559;DHT22;15002;52.028;5.670;2023-02-26T07:44:06;4.00;98.40
27559;DHT22;15002;52.028;5.670;2023-02-26T07:46:32;4.00;98.30
27559;DHT22;15002;52.028;5.670;2023-02-26T07:48:58;3.70;98.70
27559;DHT22;15002;52.028;5.670;2023-02-26T07:51:23;3.70;99.10
27559;DHT22;15002;52.028;5.670;2023-02-26T07:53:49;3.90;98.80
27559;DHT22;15002;52.028;5.670;2023-02-26T07:56:15;4.00;98.50
27559;DHT22;15002;52.028;5.670;2023-02-26T07:58:40;4.10;98.20
27559;DHT22;15002;52.028;5.670;2023-02-26T08:01:06;4.20;98.20
27559;DHT22;15002;52.028;5.670;2023-02-26T08:03:32;4.10;98.20
27559;DHT22;15002;52.028;5.670;2023-02-26T08:05:57;4.30;98.00
27559;DHT22;15002;52.028;5.670;2023-02-26T08:08:25;4.30;98.10
27559;DHT22;15002;52.028;5.670;2023-02-26T08:10:51;4.20;98.00
27559;DHT22;15002;52.028;5.670;2023-02-26T08:13:17;4.10;98.10
27559;DHT22;15002;52.028;5.670;2023-02-26T08:15:43;4.10;98.70
27559;DHT22;15002;52.028;5.670;2023-02-26T08:18:09;4.10;98.40
27559;DHT22;15002;52.028;5.670;2023-02-26T08:20:35;4.20;98.20
27559;DHT22;15002;52.028;5.670;2023-02-26T08:23:01;4.50;97.90
27559;DHT22;15002;52.028;5.670;2023-02-26T08:25:26;4.40;98.30
27559;DHT22;15002;52.028;5.670;2023-02-26T08:27:52;4.30;98.40
27559;DHT22;15002;52.028;5.670;2023-02-26T08:30:18;4.50;98.30
27559;DHT22;15002;52.028;5.670;2023-02-26T08:32:44;4.60;98.30
27559;DHT22;15002;52.028;5.670;2023-02-26T08:35:10;4.40;98.50
27559;DHT22;15002;52.028;5.670;2023-02-26T08:37:36;4.30;98.90
27559;DHT22;15002;52.028;5.670;2023-02-26T08:40:04;4.40;99.10
27559;DHT22;15002;52.028;5.670;2023-02-26T08:42:30;4.70;98.80
27559;DHT22;15002;52.028;5.670;2023-02-26T08:44:56;4.90;98.70
27559;DHT22;15002;52.028;5.670;2023-02-26T08:47:21;4.90;98.60
27559;DHT22;15002;52.028;5.670;2023-02-26T08:49:47;4.90;98.70
27559;DHT22;15002;52.028;5.670;2023-02-26T08:52:12;5.30;98.30
27559;DHT22;15002;52.028;5.670;2023-02-26T08:54:38;5.40;98.30
27559;DHT22;15002;52.028;5.670;2023-02-26T08:57:04;5.20;97.90
27559;DHT22;15002;52.028;5.670;2023-02-26T08:59:29;5.30;97.70
27559;DHT22;15002;52.028;5.670;2023-02-26T09:01:55;5.00;98.70
27559;DHT22;15002;52.028;5.670;2023-02-26T09:04:20;4.90;98.20
27559;DHT22;15002;52.028;5.670;2023-02-26T09:06:46;5.20;97.00
27559;DHT22;15002;52.028;5.670;2023-02-26T09:09:12;5.00;96.60
27559;DHT22;15002;52.028;5.670;2023-02-26T09:11:38;4.80;96.20
27559;DHT22;15002;52.028;5.670;2023-02-26T09:14:04;4.60;96.50
27559;DHT22;15002;52.028;5.670;2023-02-26T09:16:30;4.90;96.20
27559;DHT22;15002;52.028;5.670;2023-02-26T09:18:56;5.20;95.50
27559;DHT22;15002;52.028;5.670;2023-02-26T09:21:22;4.90;94.90
27559;DHT22;15002;52.028;5.670;2023-02-26T09:23:48;4.80;94.40
27559;DHT22;15002;52.028;5.670;2023-02-26T09:26:14;4.70;95.00
27559;DHT22;15002;52.028;5.670;2023-02-26T09:28:40;5.40;94.30
27559;DHT22;15002;52.028;5.670;2023-02-26T09:31:05;5.20;93.40
27559;DHT22;15002;52.028;5.670;2023-02-26T09:33:34;5.20;93.60
27559;DHT22;15002;52.028;5.670;2023-02-26T09:36:00;5.40;93.30
27559;DHT22;15002;52.028;5.670;2023-02-26T09:38:27;5.80;93.20
27559;DHT22;15002;52.028;5.670;2023-02-26T09:41:05;6.10;91.90
27559;DHT22;15002;52.028;5.670;2023-02-26T09:43:48;6.20;91.50
27559;DHT22;15002;52.028;5.670;2023-02-26T09:54:57;6.20;90.90
27559;DHT22;15002;52.028;5.670;2023-02-26T09:57:32;6.40;90.30
27559;DHT22;15002;52.028;5.670;2023-02-26T09:59:59;6.50;90.20
27559;DHT22;15002;52.028;5.670;2023-02-26T10:05:35;6.30;90.30
27559;DHT22;15002;52.028;5.670;2023-02-26T10:08:15;6.30;90.60
27559;DHT22;15002;52.028;5.670;2023-02-26T10:11:02;6.20;90.20
27559;DHT22;15002;52.028;5.670;2023-02-26T10:16:07;6.60;90.70
27559;DHT22;15002;52.028;5.670;2023-02-26T10:18:38;6.50;90.50
27559;DHT22;15002;52.028;5.670;2023-02-26T10:21:22;6.60;89.90
27559;DHT22;15002;52.028;5.670;2023-02-26T10:23:54;6.70;90.40
27559;DHT22;15002;52.028;5.670;2023-02-26T10:29:30;6.70;90.30
27559;DHT22;15002;52.028;5.670;2023-02-26T10:34:55;7.00;89.80
27559;DHT22;15002;52.028;5.670;2023-02-26T10:37:46;7.30;90.50
27559;DHT22;15002;52.028;5.670;2023-02-26T10:43:46;7.00;89.90
27559;DHT22;15002;52.028;5.670;2023-02-26T10:46:17;7.50;89.80
27559;DHT22;15002;52.028;5.670;2023-02-26T10:51:19;6.80;90.00
27559;DHT22;15002;52.028;5.670;2023-02-26T10:53:51;6.40;91.00
27559;DHT22;15002;52.028;5.670;2023-02-26T10:56:33;6.40;90.70
27559;DHT22;15002;52.028;5.670;2023-02-26T10:58:59;6.60;90.80
27559;DHT22;15002;52.028;5.670;2023-02-26T11:01:27;6.60;90.60
27559;DHT22;15002;52.028;5.670;2023-02-26T11:04:06;6.30;90.80
27559;DHT22;15002;52.028;5.670;2023-02-26T11:06:48;6.60;91.50
27559;DHT22;15002;52.028;5.670;2023-02-26T11:09:24;7.20;90.40
27559;DHT22;15002;52.028;5.670;2023-02-26T11:11:54;7.40;90.00
27559;DHT22;15002;52.028;5.670;2023-02-26T11:14:21;7.50;89.90
27559;DHT22;15002;52.028;5.670;2023-02-26T11:16:55;7.20;86.60
27559;DHT22;15002;52.028;5.670;2023-02-26T11:19:37;6.50;89.60
27559;DHT22;15002;52.028;5.670;2023-02-26T11:22:04;6.20;90.10
27559;DHT22;15002;52.028;5.670;2023-02-26T11:24:37;6.20;89.60
27559;DHT22;15002;52.028;5.670;2023-02-26T11:27:10;6.10;88.90
27559;DHT22;15002;52.028;5.670;2023-02-26T11:29:39;6.00;90.10
27559;DHT22;15002;52.028;5.670;2023-02-26T11:32:12;6.40;90.10
27559;DHT22;15002;52.028;5.670;2023-02-26T11:34:48;6.20;88.60
27559;DHT22;15002;52.028;5.670;2023-02-26T11:37:19;6.20;89.00
27559;DHT22;15002;52.028;5.670;2023-02-26T11:40:02;6.10;88.10
27559;DHT22;15002;52.028;5.670;2023-02-26T11:42:35;6.40;87.60
27559;DHT22;15002;52.028;5.670;2023-02-26T11:45:04;5.90;90.10
27559;DHT22;15002;52.028;5.670;2023-02-26T11:47:30;6.30;90.30
27559;DHT22;15002;52.028;5.670;2023-02-26T11:50:04;6.70;90.20
27559;DHT22;15002;52.028;5.670;2023-02-26T11:52:44;6.60;90.30
27559;DHT22;15002;52.028;5.670;2023-02-26T11:55:20;6.90;90.70
27559;DHT22;15002;52.028;5.670;2023-02-26T11:57:50;7.10;90.20
27559;DHT22;15002;52.028;5.670;2023-02-26T12:00:38;7.30;90.30
27559;DHT22;15002;52.028;5.670;2023-02-26T12:03:09;7.30;89.80
27559;DHT22;15002;52.028;5.670;2023-02-26T12:05:39;7.30;88.40
27559;DHT22;15002;52.028;5.670;2023-02-26T12:10:59;6.70;88.90
27559;DHT22;15002;52.028;5.670;2023-02-26T12:16:24;6.40;90.10
27559;DHT22;15002;52.028;5.670;2023-02-26T12:19:04;6.40;89.40
27559;DHT22;15002;52.028;5.670;2023-02-26T12:35:19;6.30;90.40
27559;DHT22;15002;52.028;5.670;2023-02-26T12:41:04;7.00;88.60
27559;DHT22;15002;52.028;5.670;2023-02-26T12:43:49;7.00;88.90
27559;DHT22;15002;52.028;5.670;2023-02-26T12:46:25;7.00;87.40
27559;DHT22;15002;52.028;5.670;2023-02-26T13:10:20;7.00;85.20
27559;DHT22;15002;52.028;5.670;2023-02-26T13:18:42;6.70;85.80
27559;DHT22;15002;52.028;5.670;2023-02-26T13:21:32;6.60;87.40
27559;DHT22;15002;52.028;5.670;2023-02-26T13:24:11;6.90;86.60
27559;DHT22;15002;52.028;5.670;2023-02-26T13:26:39;6.70;86.30
27559;DHT22;15002;52.028;5.670;2023-02-26T13:29:20;6.50;86.90
27559;DHT22;15002;52.028;5.670;2023-02-26T13:35:04;6.70;88.20
27559;DHT22;15002;52.028;5.670;2023-02-26T13:37:04;6.70;85.90
27559;DHT22;15002;52.028;5.670;2023-02-26T13:42:29;6.80;84.40
27559;DHT22;15002;52.028;5.670;2023-02-26T13:45:20;6.80;86.50
27559;DHT22;15002;52.028;5.670;2023-02-26T13:48:13;6.80;87.30
27559;DHT22;15002;52.028;5.670;2023-02-26T13:51:07;6.90;86.70
27559;DHT22;15002;52.028;5.670;2023-02-26T14:01:31;7.40;86.20
27559;DHT22;15002;52.028;5.670;2023-02-26T14:22:34;7.50;85.50
27559;DHT22;15002;52.028;5.670;2023-02-26T14:25:19;7.70;86.20
27559;DHT22;15002;52.028;5.670;2023-02-26T14:27:47;7.80;85.90
27559;DHT22;15002;52.028;5.670;2023-02-26T14:30:26;7.90;85.00
27559;DHT22;15002;52.028;5.670;2023-02-26T14:33:06;7.50;86.10
27559;DHT22;15002;52.028;5.670;2023-02-26T14:35:59;7.70;86.10
27559;DHT22;15002;52.028;5.670;2023-02-26T14:38:35;7.60;84.70
27559;DHT22;15002;52.028;5.670;2023-02-26T14:41:06;7.50;85.70
27559;DHT22;15002;52.028;5.670;2023-02-26T14:43:43;7.40;86.50
27559;DHT22;15002;52.028;5.670;2023-02-26T14:46:10;7.20;86.80
27559;DHT22;15002;52.028;5.670;2023-02-26T14:48:37;7.30;88.10
27559;DHT22;15002;52.028;5.670;2023-02-26T14:56:51;7.60;86.80
27559;DHT22;15002;52.028;5.670;2023-02-26T15:04:43;7.70;87.20
27559;DHT22;15002;52.028;5.670;2023-02-26T15:24:39;7.20;85.60
27559;DHT22;15002;52.028;5.670;2023-02-26T15:27:06;7.30;86.30
27559;DHT22;15002;52.028;5.670;2023-02-26T15:29:36;7.20;85.50
27559;DHT22;15002;52.028;5.670;2023-02-26T15:32:24;7.10;86.20
27559;DHT22;15002;52.028;5.670;2023-02-26T15:35:05;7.20;86.20
27559;DHT22;15002;52.028;5.670;2023-02-26T15:37:32;7.50;85.20
27559;DHT22;15002;52.028;5.670;2023-02-26T15:39:59;7.50;85.70
27559;DHT22;15002;52.028;5.670;2023-02-26T15:42:32;7.70;85.50
27559;DHT22;15002;52.028;5.670;2023-02-26T15:45:00;7.80;85.50
27559;DHT22;15002;52.028;5.670;2023-02-26T15:47:27;7.60;86.40
27559;DHT22;15002;52.028;5.670;2023-02-26T15:49:54;7.80;86.40
27559;DHT22;15002;52.028;5.670;2023-02-26T15:52:23;7.80;85.40
27559;DHT22;15002;52.028;5.670;2023-02-26T15:54:58;7.90;85.00
27559;DHT22;15002;52.028;5.670;2023-02-26T15:57:25;7.90;84.90
27559;DHT22;15002;52.028;5.670;2023-02-26T15:59:54;8.00;84.80
27559;DHT22;15002;52.028;5.670;2023-02-26T16:02:29;7.90;85.50
27559;DHT22;15002;52.028;5.670;2023-02-26T16:04:55;7.50;86.80
27559;DHT22;15002;52.028;5.670;2023-02-26T16:07:22;7.50;87.00
27559;DHT22;15002;52.028;5.670;2023-02-26T16:09:50;7.50;87.00
27559;DHT22;15002;52.028;5.670;2023-02-26T16:12:36;7.60;87.30
27559;DHT22;15002;52.028;5.670;2023-02-26T16:15:14;7.80;86.50
27559;DHT22;15002;52.028;5.670;2023-02-26T16:17:44;7.60;87.00
27559;DHT22;15002;52.028;5.670;2023-02-26T16:20:17;7.80;87.00
27559;DHT22;15002;52.028;5.670;2023-02-26T16:22:48;7.80;86.20
27559;DHT22;15002;52.028;5.670;2023-02-26T16:25:23;7.90;86.20
27559;DHT22;15002;52.028;5.670;2023-02-26T16:28:01;7.60;87.40
27559;DHT22;15002;52.028;5.670;2023-02-26T16:30:36;7.70;88.30
27559;DHT22;15002;52.028;5.670;2023-02-26T16:33:08;7.60;88.60
27559;DHT22;15002;52.028;5.670;2023-02-26T16:35:48;7.50;88.90
27559;DHT22;15002;52.028;5.670;2023-02-26T16:38:20;7.80;88.30
27559;DHT22;15002;52.028;5.670;2023-02-26T16:40:58;7.50;89.00
27559;DHT22;15002;52.028;5.670;2023-02-26T16:43:49;7.60;89.30
27559;DHT22;15002;52.028;5.670;2023-02-26T16:49:04;7.50;89.20
27559;DHT22;15002;52.028;5.670;2023-02-26T16:51:34;7.50;89.30
27559;DHT22;15002;52.028;5.670;2023-02-26T16:54:08;7.60;89.60
27559;DHT22;15002;52.028;5.670;2023-02-26T16:56:39;7.60;89.90
27559;DHT22;15002;52.028;5.670;2023-02-26T16:59:23;7.70;89.40
27559;DHT22;15002;52.028;5.670;2023-02-26T17:01:54;7.70;90.20
27559;DHT22;15002;52.028;5.670;2023-02-26T17:04:24;7.60;90.10
27559;DHT22;15002;52.028;5.670;2023-02-26T17:06:51;7.50;90.30
27559;DHT22;15002;52.028;5.670;2023-02-26T17:14:46;7.60;90.50
27559;DHT22;15002;52.028;5.670;2023-02-26T17:17:12;7.80;90.70
27559;DHT22;15002;52.028;5.670;2023-02-26T17:19:38;7.80;91.00
27559;DHT22;15002;52.028;5.670;2023-02-26T17:22:04;7.90;90.80
27559;DHT22;15002;52.028;5.670;2023-02-26T17:24:35;7.60;91.00
27559;DHT22;15002;52.028;5.670;2023-02-26T17:27:03;7.20;92.10
27559;DHT22;15002;52.028;5.670;2023-02-26T17:29:37;7.10;92.40
27559;DHT22;15002;52.028;5.670;2023-02-26T17:32:26;7.00;92.70
27559;DHT22;15002;52.028;5.670;2023-02-26T17:34:51;7.10;92.70
27559;DHT22;15002;52.028;5.670;2023-02-26T17:37:18;7.00;93.10
27559;DHT22;15002;52.028;5.670;2023-02-26T17:39:44;7.00;93.10
27559;DHT22;15002;52.028;5.670;2023-02-26T17:42:15;6.60;93.80
27559;DHT22;15002;52.028;5.670;2023-02-26T17:44:41;6.60;94.00
27559;DHT22;15002;52.028;5.670;2023-02-26T17:47:15;6.80;93.90
27559;DHT22;15002;52.028;5.670;2023-02-26T17:49:41;6.80;93.90
27559;DHT22;15002;52.028;5.670;2023-02-26T17:52:07;6.70;93.80
27559;DHT22;15002;52.028;5.670;2023-02-26T17:54:32;6.40;94.30
27559;DHT22;15002;52.028;5.670;2023-02-26T17:56:58;6.40;94.50
27559;DHT22;15002;52.028;5.670;2023-02-26T17:59:24;6.60;94.30
27559;DHT22;15002;52.028;5.670;2023-02-26T18:01:51;6.60;94.10
27559;DHT22;15002;52.028;5.670;2023-02-26T18:04:17;6.50;94.50
27559;DHT22;15002;52.028;5.670;2023-02-26T18:06:43;6.60;94.30
27559;DHT22;15002;52.028;5.670;2023-02-26T18:09:10;6.50;94.30
27559;DHT22;15002;52.028;5.670;2023-02-26T18:11:36;6.20;95.00
27559;DHT22;15002;52.028;5.670;2023-02-26T18:14:03;6.30;94.80
27559;DHT22;15002;52.028;5.670;2023-02-26T18:16:32;6.30;95.10
27559;DHT22;15002;52.028;5.670;2023-02-26T18:19:00;6.20;95.00
27559;DHT22;15002;52.028;5.670;2023-02-26T18:21:26;6.10;95.30
27559;DHT22;15002;52.028;5.670;2023-02-26T18:23:52;6.10;95.30
27559;DHT22;15002;52.028;5.670;2023-02-26T18:26:22;6.30;95.10
27559;DHT22;15002;52.028;5.670;2023-02-26T18:28:49;6.20;95.00
27559;DHT22;15002;52.028;5.670;2023-02-26T18:31:16;6.30;95.10
27559;DHT22;15002;52.028;5.670;2023-02-26T18:33:41;6.30;95.00
27559;DHT22;15002;52.028;5.670;2023-02-26T18:36:18;6.20;95.10
27559;DHT22;15002;52.028;5.670;2023-02-26T18:38:45;6.20;95.10
27559;DHT22;15002;52.028;5.670;2023-02-26T18:41:10;6.20;95.10
27559;DHT22;15002;52.028;5.670;2023-02-26T18:43:36;6.20;95.30
27559;DHT22;15002;52.028;5.670;2023-02-26T18:46:02;6.10;95.20
27559;DHT22;15002;52.028;5.670;2023-02-26T18:48:28;6.20;95.20
27559;DHT22;15002;52.028;5.670;2023-02-26T18:50:53;6.10;95.40
27559;DHT22;15002;52.028;5.670;2023-02-26T18:53:24;5.90;95.60
27559;DHT22;15002;52.028;5.670;2023-02-26T18:55:52;5.90;95.60
27559;DHT22;15002;52.028;5.670;2023-02-26T18:58:19;5.90;95.50
27559;DHT22;15002;52.028;5.670;2023-02-26T19:00:45;6.00;95.60
27559;DHT22;15002;52.028;5.670;2023-02-26T19:03:11;5.80;95.80
27559;DHT22;15002;52.028;5.670;2023-02-26T19:05:37;6.00;95.60